Time;durP1;ratioP1;P1;durP2;ratioP2;P2;SDS_P1;SDS_P2;PMS_P1;PMS_P2;Temp;Humidity;BMP_temperature;BMP_pressure;BME280_temperature;BME280_humidity;BME280_pressure;Samples;Min_cycle;Max_cycle;Signal;HPM_P1;HPM_P2
2022/01/31 00:00:37;;;;;;;26.52;4.82;;;3.70;99.90;;;;;;5011388;28;20179;-79
2022/01/31 00:03:03;;;;;;;28.27;5.68;;;3.70;99.90;;;;;;5026958;28;20493;-79
2022/01/31 00:05:29;;;;;;;22.00;4.43;;;3.60;99.90;;;;;;5028941;28;20072;-79
2022/01/31 00:07:54;;;;;;;29.33;5.45;;;3.60;99.90;;;;;;5029580;28;20108;-78
2022/01/31 00:10:31;;;;;;;23.23;5.30;;;3.60;99.90;;;;;;5028732;28;20056;-79
2022/01/31 00:13:03;;;;;;;;;;;3.60;99.90;;;;;;5029215;28;20136;-79
2022/01/31 00:15:30;;;;;;;32.08;5.43;;;3.50;99.90;;;;;;5029713;28;19929;-79
2022/01/31 00:17:55;;;;;;;17.75;4.45;;;3.40;99.90;;;;;;5028573;28;20049;-79
2022/01/31 00:20:21;;;;;;;18.45;4.20;;;3.40;99.90;;;;;;5028896;28;20337;-79
2022/01/31 00:22:47;;;;;;;20.00;5.60;;;3.40;99.90;;;;;;5030046;28;20778;-79
2022/01/31 00:25:14;;;;;;;32.67;6.15;;;3.50;99.90;;;;;;5016857;28;20518;-79
2022/01/31 00:27:40;;;;;;;23.33;5.63;;;3.40;99.90;;;;;;5035305;28;20099;-79
2022/01/31 00:30:07;;;;;;;15.32;5.03;;;3.50;99.90;;;;;;5031602;28;20049;-79
2022/01/31 00:32:33;;;;;;;27.85;5.88;;;3.50;99.90;;;;;;5029920;28;20586;-79
2022/01/31 00:34:59;;;;;;;15.98;5.68;;;3.50;99.90;;;;;;5030781;28;20052;-79
2022/01/31 00:37:25;;;;;;;30.58;5.72;;;3.60;99.90;;;;;;5029599;28;20057;-79
2022/01/31 00:39:51;;;;;;;22.83;6.88;;;3.60;99.90;;;;;;5029076;28;20041;-78
2022/01/31 00:42:19;;;;;;;25.25;4.28;;;3.60;99.90;;;;;;5030304;28;20084;-79
2022/01/31 00:44:59;;;;;;;18.10;4.75;;;3.60;99.90;;;;;;5012079;28;20539;-79
2022/01/31 00:47:27;;;;;;;28.33;5.72;;;2.90;99.90;;;;;;5028525;28;20389;-78
2022/01/31 00:50:10;;;;;;;22.98;4.07;;;3.60;99.90;;;;;;5029606;28;20057;-79
2022/01/31 00:52:38;;;;;;;22.30;6.40;;;3.70;99.90;;;;;;5029510;28;20516;-79
2022/01/31 00:55:05;;;;;;;33.05;5.22;;;3.80;99.90;;;;;;5029871;28;20085;-79
2022/01/31 00:57:31;;;;;;;20.85;5.03;;;3.80;99.90;;;;;;5011133;28;20061;-79
2022/01/31 00:59:57;;;;;;;23.80;5.20;;;3.80;99.90;;;;;;5029116;28;20187;-79
2022/01/31 01:02:24;;;;;;;21.65;6.10;;;3.80;99.90;;;;;;5028529;28;20053;-79
2022/01/31 01:04:51;;;;;;;17.63;5.88;;;3.70;99.90;;;;;;5029885;28;20053;-80
2022/01/31 01:07:19;;;;;;;27.90;7.53;;;3.70;99.90;;;;;;5028996;28;20457;-79
2022/01/31 01:09:46;;;;;;;36.95;7.60;;;3.60;99.90;;;;;;5031901;28;20192;-79
2022/01/31 01:12:13;;;;;;;23.23;5.22;;;3.60;99.90;;;;;;5029264;28;20060;-79
2022/01/31 01:14:39;;;;;;;22.17;6.60;;;3.60;99.90;;;;;;5029502;28;20049;-80
2022/01/31 01:17:05;;;;;;;25.65;7.80;;;3.60;99.90;;;;;;5032289;28;20064;-79
2022/01/31 01:19:30;;;;;;;26.90;7.25;;;3.50;99.90;;;;;;5028957;28;20415;-80
2022/01/31 01:21:56;;;;;;;36.40;7.47;;;3.50;99.90;;;;;;5031503;28;20521;-80
2022/01/31 01:24:22;;;;;;;25.52;6.90;;;3.50;99.90;;;;;;5029765;28;20049;-80
2022/01/31 01:26:48;;;;;;;15.70;5.68;;;3.50;99.90;;;;;;5032451;28;20049;-79
2022/01/31 01:29:15;;;;;;;25.80;7.35;;;3.40;99.90;;;;;;5031980;28;20041;-80
2022/01/31 01:31:41;;;;;;;33.33;8.07;;;3.40;99.90;;;;;;5033432;28;20056;-81
2022/01/31 01:34:07;;;;;;;31.95;7.78;;;3.40;99.90;;;;;;5033292;28;20045;-81
2022/01/31 01:36:34;;;;;;;32.05;10.00;;;3.40;99.90;;;;;;5034978;28;20057;-81
2022/01/31 01:39:00;;;;;;;34.30;9.07;;;3.40;99.90;;;;;;5038991;28;20046;-82
2022/01/31 01:41:25;;;;;;;25.63;9.38;;;3.30;99.90;;;;;;5038394;28;20041;-80
2022/01/31 01:43:51;;;;;;;26.48;9.48;;;3.30;99.90;;;;;;5034915;28;20056;-81
2022/01/31 01:46:17;;;;;;;27.63;10.43;;;3.20;99.90;;;;;;5034034;28;20129;-81
2022/01/31 01:48:42;;;;;;;39.10;12.35;;;3.20;99.90;;;;;;5034280;28;20049;-80
2022/01/31 01:51:08;;;;;;;32.70;12.40;;;3.10;99.90;;;;;;5031970;28;20496;-81
2022/01/31 01:53:34;;;;;;;36.25;13.40;;;3.10;99.90;;;;;;5033162;28;20045;-80
2022/01/31 01:56:00;;;;;;;33.78;12.60;;;3.10;99.90;;;;;;5033633;28;20052;-81
2022/01/31 01:58:30;;;;;;;32.08;12.65;;;3.10;99.90;;;;;;5034443;28;20087;-81
2022/01/31 02:00:59;;;;;;;37.13;13.02;;;3.00;99.90;;;;;;5032725;28;20523;-81
2022/01/31 02:03:27;;;;;;;35.40;13.30;;;3.00;99.90;;;;;;5033120;28;20045;-81
2022/01/31 02:05:54;;;;;;;45.03;14.50;;;3.00;99.90;;;;;;5034825;28;20056;-82
2022/01/31 02:08:20;;;;;;;22.73;8.63;;;2.90;99.90;;;;;;5032779;28;20041;-81
2022/01/31 02:10:46;;;;;;;34.17;13.95;;;2.90;99.90;;;;;;5028681;28;20136;-82
2022/01/31 02:13:15;;;;;;;52.63;16.63;;;2.80;99.90;;;;;;5030743;28;20045;-81
2022/01/31 02:15:41;;;;;;;30.20;13.60;;;2.80;99.90;;;;;;5029188;28;20053;-81
2022/01/31 02:18:07;;;;;;;31.63;12.80;;;2.80;99.90;;;;;;5031323;28;20528;-82
2022/01/31 02:20:37;;;;;;;30.95;14.98;;;2.70;99.90;;;;;;5031624;28;20053;-82
2022/01/31 02:23:06;;;;;;;33.13;13.32;;;2.70;99.90;;;;;;5032791;28;20064;-81
2022/01/31 02:25:31;;;;;;;38.40;14.25;;;2.80;99.90;;;;;;5033007;28;20065;-82
2022/01/31 02:27:57;;;;;;;29.67;12.30;;;2.80;99.90;;;;;;5035443;28;20424;-81
2022/01/31 02:30:23;;;;;;;22.90;13.13;;;2.80;99.90;;;;;;5038002;28;20053;-82
2022/01/31 02:32:48;;;;;;;33.90;14.30;;;2.80;99.90;;;;;;5037858;28;20120;-82
2022/01/31 02:35:14;;;;;;;27.80;12.40;;;2.80;99.90;;;;;;5037846;28;20048;-81
2022/01/31 02:37:40;;;;;;;22.55;12.05;;;2.80;99.90;;;;;;5037967;28;20401;-82
2022/01/31 02:40:06;;;;;;;29.08;12.60;;;2.80;99.90;;;;;;5037853;28;20042;-81
2022/01/31 02:42:32;;;;;;;31.77;16.00;;;2.80;99.90;;;;;;5038626;28;20042;-80
2022/01/31 02:44:57;;;;;;;31.98;15.73;;;2.80;99.90;;;;;;5037388;28;20057;-82
2022/01/31 02:47:29;;;;;;;41.72;18.80;;;2.70;99.90;;;;;;5037769;28;20045;-81
2022/01/31 02:49:59;;;;;;;27.02;12.82;;;2.80;99.90;;;;;;5038377;28;20060;-81
2022/01/31 02:52:28;;;;;;;33.40;15.15;;;2.80;99.90;;;;;;5038107;28;20071;-82
2022/01/31 02:54:53;;;;;;;30.42;14.23;;;2.80;99.90;;;;;;5039280;28;20044;-82
2022/01/31 02:57:19;;;;;;;31.02;15.05;;;2.90;99.90;;;;;;5039147;28;20081;-81
2022/01/31 02:59:45;;;;;;;27.75;12.25;;;2.80;99.90;;;;;;5037486;28;20049;-82
2022/01/31 03:02:10;;;;;;;33.38;15.82;;;2.90;99.90;;;;;;5038371;28;20073;-82
2022/01/31 03:04:36;;;;;;;31.73;15.57;;;2.90;99.90;;;;;;5036000;28;20057;-81
2022/01/31 03:07:02;;;;;;;25.50;11.57;;;2.90;99.90;;;;;;5039056;28;20430;-82
2022/01/31 03:09:27;;;;;;;28.95;13.95;;;3.00;99.90;;;;;;5038125;28;20404;-82
2022/01/31 03:11:53;;;;;;;22.48;12.27;;;3.00;99.90;;;;;;5038930;28;20075;-82
2022/01/31 03:14:19;;;;;;;30.20;12.40;;;3.10;99.90;;;;;;5035601;28;20057;-82
2022/01/31 03:16:48;;;;;;;27.27;13.32;;;3.10;99.90;;;;;;5037509;28;20053;-82
2022/01/31 03:19:15;;;;;;;20.95;12.32;;;3.20;99.90;;;;;;5036959;28;20069;-82
2022/01/31 03:21:42;;;;;;;22.00;11.70;;;3.10;99.90;;;;;;5038229;28;20045;-82
2022/01/31 03:24:09;;;;;;;20.67;10.90;;;3.20;99.90;;;;;;5037252;28;20044;-82
2022/01/31 03:26:35;;;;;;;26.98;12.32;;;3.20;99.90;;;;;;5036443;28;20484;-83
2022/01/31 03:29:01;;;;;;;21.48;11.13;;;3.20;99.90;;;;;;5036359;28;20373;-83
2022/01/31 03:31:27;;;;;;;18.95;8.82;;;3.30;99.90;;;;;;5035027;28;20057;-83
2022/01/31 03:33:54;;;;;;;22.08;9.15;;;3.40;99.90;;;;;;5035544;28;20044;-82
2022/01/31 03:36:20;;;;;;;18.88;9.15;;;3.40;99.90;;;;;;5034311;28;20068;-83
2022/01/31 03:38:46;;;;;;;24.52;12.15;;;3.40;99.90;;;;;;5035742;28;20037;-83
2022/01/31 03:41:14;;;;;;;25.60;10.63;;;3.40;99.90;;;;;;5035064;28;20045;-83
2022/01/31 03:43:40;;;;;;;22.50;10.85;;;3.40;99.90;;;;;;5034368;28;20129;-82
2022/01/31 03:46:06;;;;;;;26.23;10.93;;;3.50;99.90;;;;;;5037139;28;20626;-82
2022/01/31 03:48:32;;;;;;;29.60;10.45;;;3.50;99.90;;;;;;5036941;28;20045;-82
2022/01/31 03:51:00;;;;;;;23.00;8.77;;;3.60;99.90;;;;;;5036964;28;20045;-82
2022/01/31 03:53:26;;;;;;;25.77;8.88;;;3.70;99.90;;;;;;5037399;28;20049;-83
2022/01/31 03:55:51;;;;;;;23.42;8.45;;;3.80;99.90;;;;;;5038902;28;20093;-82
2022/01/31 03:58:17;;;;;;;18.08;7.38;;;3.90;99.90;;;;;;5020054;28;20084;-82
2022/01/31 04:00:43;;;;;;;23.60;8.05;;;4.10;99.90;;;;;;5039448;28;20049;-83
2022/01/31 04:03:09;;;;;;;32.75;10.20;;;4.20;99.90;;;;;;5043190;28;20045;-82
2022/01/31 04:05:37;;;;;;;29.45;7.35;;;4.20;99.90;;;;;;5041083;28;20058;-82
2022/01/31 04:08:03;;;;;;;27.90;8.80;;;4.20;99.90;;;;;;5020917;28;20053;-82
2022/01/31 04:10:29;;;;;;;24.17;6.88;;;4.30;99.90;;;;;;5040107;28;20041;-82
2022/01/31 04:12:55;;;;;;;28.52;6.70;;;4.40;99.90;;;;;;5037670;28;20677;-82
2022/01/31 04:15:20;;;;;;;27.75;6.60;;;4.60;99.90;;;;;;5038582;28;20057;-83
2022/01/31 04:17:46;;;;;;;33.80;6.38;;;4.70;99.90;;;;;;5039384;28;20064;-82
2022/01/31 04:20:12;;;;;;;25.90;6.13;;;4.80;99.90;;;;;;5020494;28;20041;-82
2022/01/31 04:22:46;;;;;;;38.00;5.85;;;5.00;99.90;;;;;;5037848;28;20037;-83
2022/01/31 04:25:27;;;;;;;27.15;5.55;;;5.00;99.90;;;;;;5038379;28;20505;-83
2022/01/31 04:28:01;;;;;;;23.55;3.90;;;5.00;99.90;;;;;;5038604;28;20060;-82
2022/01/31 04:30:28;;;;;;;24.73;5.30;;;5.00;99.90;;;;;;5037852;28;20046;-83
2022/01/31 04:32:54;;;;;;;23.52;4.70;;;5.00;99.90;;;;;;5038215;28;20045;-83
2022/01/31 04:35:19;;;;;;;26.20;4.28;;;5.00;99.90;;;;;;5038511;28;20041;-82
2022/01/31 04:37:45;;;;;;;24.73;4.47;;;5.00;99.90;;;;;;5037880;28;20045;-83
2022/01/31 04:40:13;;;;;;;21.45;3.60;;;5.00;99.90;;;;;;5033537;28;20053;-83
2022/01/31 04:42:44;;;;;;;19.00;4.20;;;5.00;99.90;;;;;;5016294;28;20057;-83
2022/01/31 04:45:11;;;;;;;21.75;2.78;;;4.90;99.90;;;;;;5014888;28;20071;-83
2022/01/31 04:47:37;;;;;;;24.45;3.30;;;4.70;99.90;;;;;;5034145;28;20048;-82
2022/01/31 04:50:04;;;;;;;20.67;3.53;;;4.60;99.90;;;;;;5031557;28;20105;-82
2022/01/31 04:52:29;;;;;;;24.83;4.10;;;4.60;99.90;;;;;;5017752;28;20045;-82
2022/01/31 04:54:55;;;;;;;21.25;3.95;;;4.50;99.90;;;;;;5036538;28;20120;-82
2022/01/31 04:57:21;;;;;;;19.13;3.13;;;4.50;99.90;;;;;;5036474;28;20053;-83
2022/01/31 04:59:48;;;;;;;23.55;2.65;;;4.40;99.90;;;;;;5036889;28;20053;-82
2022/01/31 05:02:14;;;;;;;22.63;4.10;;;4.30;99.90;;;;;;5035853;28;20057;-82
2022/01/31 05:04:39;;;;;;;22.58;3.67;;;4.40;99.90;;;;;;5037814;28;20057;-82
2022/01/31 05:07:05;;;;;;;26.45;3.67;;;4.30;99.90;;;;;;5038118;28;20045;-82
2022/01/31 05:09:31;;;;;;;30.80;4.95;;;4.30;99.90;;;;;;5037995;28;20512;-83
2022/01/31 05:11:56;;;;;;;30.50;5.90;;;4.30;99.90;;;;;;5036210;28;20052;-82
2022/01/31 05:14:22;;;;;;;30.67;4.97;;;4.30;99.90;;;;;;5036960;28;20412;-82
2022/01/31 05:16:47;;;;;;;22.55;4.97;;;4.30;99.90;;;;;;5038341;28;20123;-82
2022/01/31 05:19:13;;;;;;;18.52;3.40;;;4.30;99.90;;;;;;5036890;28;20467;-83
2022/01/31 05:21:38;;;;;;;32.42;5.10;;;4.30;99.90;;;;;;5035483;28;20077;-82
2022/01/31 05:24:06;;;;;;;29.50;4.45;;;4.50;99.90;;;;;;5037577;28;20048;-82
2022/01/31 05:26:33;;;;;;;22.92;3.35;;;4.60;99.90;;;;;;5028965;28;20041;-83
2022/01/31 05:28:59;;;;;;;13.07;1.08;;;4.60;99.90;;;;;;5027468;28;20125;-83
2022/01/31 05:31:25;;;;;;;10.48;1.00;;;4.50;99.90;;;;;;5034826;28;20088;-83
2022/01/31 05:33:50;;;;;;;13.30;1.63;;;4.30;99.90;;;;;;5035455;28;20489;-83
2022/01/31 05:36:16;;;;;;;8.38;1.73;;;4.10;99.90;;;;;;5035172;28;20091;-83
2022/01/31 05:38:42;;;;;;;7.85;1.17;;;4.10;99.90;;;;;;5035335;28;20056;-83
2022/01/31 05:41:11;;;;;;;8.45;1.00;;;4.00;99.90;;;;;;5034253;28;20049;-82
2022/01/31 05:43:37;;;;;;;12.02;1.25;;;4.00;99.90;;;;;;5032499;28;20045;-82
2022/01/31 05:46:03;;;;;;;8.02;1.25;;;3.90;99.90;;;;;;5035344;28;20073;-82
2022/01/31 05:48:29;;;;;;;12.68;2.30;;;4.00;99.90;;;;;;5035250;28;20056;-82
2022/01/31 05:50:55;;;;;;;5.57;1.67;;;4.00;99.90;;;;;;5035402;28;20041;-82
2022/01/31 05:53:21;;;;;;;15.25;2.20;;;4.00;99.90;;;;;;5035106;28;20045;-81
2022/01/31 05:55:47;;;;;;;10.30;1.58;;;4.00;99.90;;;;;;5035032;28;20539;-83
2022/01/31 05:58:13;;;;;;;12.93;1.63;;;4.00;99.90;;;;;;5035944;28;20096;-82
2022/01/31 06:00:39;;;;;;;16.48;2.80;;;4.00;99.90;;;;;;5036574;28;20053;-82
2022/01/31 06:03:05;;;;;;;5.13;1.45;;;4.00;99.90;;;;;;5034896;28;20059;-82
2022/01/31 06:05:30;;;;;;;13.90;1.70;;;4.00;99.90;;;;;;5035875;28;20053;-82
2022/01/31 06:07:56;;;;;;;11.57;1.23;;;4.00;99.90;;;;;;5018233;28;20049;-82
2022/01/31 06:10:23;;;;;;;12.35;1.80;;;4.10;99.90;;;;;;5034415;28;20053;-82
2022/01/31 06:12:51;;;;;;;14.77;2.00;;;4.20;99.90;;;;;;5035567;28;20404;-83
2022/01/31 06:15:18;;;;;;;12.35;1.95;;;4.20;99.90;;;;;;5035333;28;20100;-82
2022/01/31 06:17:43;;;;;;;15.30;1.70;;;4.20;99.90;;;;;;5035987;28;20069;-83
2022/01/31 06:20:09;;;;;;;14.98;1.55;;;4.20;99.90;;;;;;5036435;28;20508;-82
2022/01/31 06:22:35;;;;;;;11.32;2.75;;;4.20;99.90;;;;;;5038645;28;20046;-83
2022/01/31 06:25:01;;;;;;;9.75;1.90;;;4.20;99.90;;;;;;5038718;28;20045;-82
2022/01/31 06:27:26;;;;;;;15.65;2.65;;;5.10;99.90;;;;;;5018836;28;20045;-82
2022/01/31 06:29:52;;;;;;;19.15;3.63;;;4.30;99.90;;;;;;5036821;28;20041;-82
2022/01/31 06:32:19;;;;;;;11.63;1.98;;;4.20;99.90;;;;;;5017573;28;20045;-82
2022/01/31 06:34:45;;;;;;;16.05;1.90;;;4.30;99.90;;;;;;5034926;28;20172;-82
2022/01/31 06:37:10;;;;;;;20.48;3.38;;;4.30;99.90;;;;;;5036675;28;20093;-83
2022/01/31 06:39:36;;;;;;;8.13;2.45;;;4.30;99.90;;;;;;5036350;28;20076;-82
2022/01/31 06:42:02;;;;;;;13.80;2.35;;;4.40;99.90;;;;;;5037642;28;20047;-83
2022/01/31 06:44:27;;;;;;;11.23;2.00;;;4.30;99.90;;;;;;5037484;28;20109;-82
2022/01/31 06:46:53;;;;;;;15.20;2.92;;;4.30;99.90;;;;;;5035611;28;20160;-82
2022/01/31 06:49:18;;;;;;;8.90;1.95;;;4.30;99.90;;;;;;5036363;28;20053;-82
2022/01/31 06:51:44;;;;;;;15.63;2.35;;;4.30;99.90;;;;;;5038102;28;20048;-82
2022/01/31 06:54:10;;;;;;;13.00;1.80;;;4.30;99.90;;;;;;5035517;28;20049;-83
2022/01/31 06:56:39;;;;;;;15.88;1.80;;;4.40;99.90;;;;;;5034939;28;20041;-82
2022/01/31 06:59:05;;;;;;;15.13;2.40;;;4.30;99.90;;;;;;5037774;28;20045;-83
2022/01/31 07:01:30;;;;;;;9.05;1.40;;;4.40;99.90;;;;;;5036906;28;20041;-82
2022/01/31 07:03:57;;;;;;;8.48;1.40;;;4.40;99.90;;;;;;5037434;28;20133;-82
2022/01/31 07:06:24;;;;;;;11.68;1.98;;;4.40;99.90;;;;;;5038820;28;20084;-82
2022/01/31 07:08:51;;;;;;;12.20;2.00;;;4.40;99.90;;;;;;5035150;28;20041;-82
2022/01/31 07:11:22;;;;;;;13.93;2.00;;;4.40;99.90;;;;;;5035733;28;20052;-83
2022/01/31 07:13:49;;;;;;;8.10;1.33;;;4.40;99.90;;;;;;5035913;28;20045;-82
2022/01/31 07:16:15;;;;;;;10.85;1.95;;;4.50;99.90;;;;;;5039223;28;20314;-82
2022/01/31 07:18:42;;;;;;;18.27;2.70;;;4.50;99.90;;;;;;5020602;28;20199;-82
2022/01/31 07:21:13;;;;;;;12.98;1.50;;;4.40;99.90;;;;;;5040322;28;20045;-82
2022/01/31 07:23:52;;;;;;;15.75;1.88;;;4.50;99.90;;;;;;5040884;28;20045;-83
2022/01/31 07:26:18;;;;;;;11.88;2.28;;;4.50;99.90;;;;;;5039464;28;20049;-82
2022/01/31 07:28:44;;;;;;;11.13;2.17;;;4.50;99.90;;;;;;5039942;28;20038;-82
2022/01/31 07:31:12;;;;;;;17.90;2.85;;;4.50;99.90;;;;;;5039688;28;20068;-82
2022/01/31 07:33:42;;;;;;;15.13;2.70;;;4.70;99.90;;;;;;5037408;28;21156;-82
2022/01/31 07:36:07;;;;;;;8.10;1.67;;;4.60;99.90;;;;;;5039259;28;20057;-82
2022/01/31 07:38:33;;;;;;;9.93;1.70;;;4.60;99.90;;;;;;5042074;28;20042;-83
2022/01/31 07:40:59;;;;;;;8.93;1.60;;;4.60;99.90;;;;;;5041988;28;20053;-82
2022/01/31 07:43:25;;;;;;;10.77;2.00;;;4.60;99.90;;;;;;5040423;28;20056;-82
2022/01/31 07:45:51;;;;;;;18.58;2.35;;;4.60;99.90;;;;;;5040603;28;20050;-83
2022/01/31 07:48:16;;;;;;;17.58;2.08;;;4.60;99.90;;;;;;5024259;28;20034;-83
2022/01/31 07:50:42;;;;;;;15.70;2.92;;;4.70;99.90;;;;;;5042230;28;20109;-83
2022/01/31 07:53:09;;;;;;;17.38;2.95;;;4.70;99.90;;;;;;5040545;28;20034;-83
2022/01/31 07:55:35;;;;;;;14.25;2.17;;;4.70;99.90;;;;;;5040345;28;20094;-83
2022/01/31 07:58:01;;;;;;;12.23;2.30;;;4.70;99.90;;;;;;5038439;28;20056;-82
2022/01/31 08:00:27;;;;;;;14.70;1.80;;;4.70;99.90;;;;;;5014439;28;20046;-83
2022/01/31 08:02:53;;;;;;;21.35;2.25;;;4.70;99.90;;;;;;5036789;28;20049;-83
2022/01/31 08:05:21;;;;;;;18.88;2.63;;;4.70;99.90;;;;;;5033447;28;20065;-83
2022/01/31 08:07:48;;;;;;;16.60;2.85;;;4.70;99.90;;;;;;5036871;28;20500;-83
2022/01/31 08:10:15;;;;;;;12.50;1.70;;;4.60;99.90;;;;;;5033957;28;20430;-82
2022/01/31 08:12:43;;;;;;;25.45;3.67;;;4.70;99.90;;;;;;5034556;28;20051;-83
2022/01/31 08:15:14;;;;;;;14.57;2.55;;;4.70;99.90;;;;;;5036094;28;20164;-82
2022/01/31 08:17:40;;;;;;;11.88;1.83;;;4.60;99.90;;;;;;5034380;28;20033;-82
2022/01/31 08:20:07;;;;;;;16.30;2.75;;;4.60;99.90;;;;;;5020797;28;20485;-82
2022/01/31 08:22:33;;;;;;;10.73;1.92;;;4.50;99.90;;;;;;5017790;28;20052;-82
2022/01/31 08:24:59;;;;;;;18.55;2.90;;;4.40;99.90;;;;;;5016044;28;20054;-82
2022/01/31 08:27:24;;;;;;;12.80;3.42;;;4.30;99.90;;;;;;5016133;28;20416;-82
2022/01/31 08:29:55;;;;;;;17.38;2.13;;;4.30;99.90;;;;;;5028028;28;20127;-83
2022/01/31 08:32:33;;;;;;;15.48;2.20;;;4.40;99.90;;;;;;5035994;28;20053;-82
2022/01/31 08:37:43;;;;;;;10.98;1.88;;;4.50;99.90;;;;;;5031723;28;20045;-83
2022/01/31 08:40:09;;;;;;;20.88;2.45;;;4.60;99.90;;;;;;5032470;28;20192;-82
2022/01/31 08:42:35;;;;;;;13.52;2.42;;;4.70;99.90;;;;;;5036452;28;20049;-81
2022/01/31 08:45:00;;;;;;;14.98;3.05;;;4.90;99.90;;;;;;5034460;28;20041;-83
2022/01/31 08:47:26;;;;;;;21.08;2.70;;;5.10;99.90;;;;;;5034709;28;20073;-83
2022/01/31 08:49:52;;;;;;;9.98;2.67;;;5.20;99.90;;;;;;5032828;28;20048;-82
2022/01/31 08:52:17;;;;;;;10.27;2.20;;;5.20;99.90;;;;;;5036639;28;20045;-83
2022/01/31 08:54:43;;;;;;;18.23;3.10;;;5.20;99.90;;;;;;5034157;28;20042;-82
2022/01/31 08:57:09;;;;;;;17.55;2.58;;;5.20;99.90;;;;;;5034656;28;20055;-82
2022/01/31 08:59:41;;;;;;;17.60;2.50;;;5.30;99.90;;;;;;5033643;28;20136;-82
2022/01/31 09:02:13;;;;;;;15.82;2.95;;;5.40;99.90;;;;;;5033970;28;20052;-83
2022/01/31 09:04:48;;;;;;;20.55;3.22;;;5.50;99.90;;;;;;5035558;28;20061;-83
2022/01/31 09:07:24;;;;;;;11.50;1.95;;;5.50;99.90;;;;;;5037026;28;20038;-83
2022/01/31 09:09:54;;;;;;;15.15;2.05;;;5.50;99.90;;;;;;5036957;28;20045;-83
2022/01/31 09:12:23;;;;;;;11.52;1.55;;;5.50;99.90;;;;;;5036268;28;20037;-82
2022/01/31 09:14:48;;;;;;;20.02;4.28;;;5.60;99.90;;;;;;5036687;28;20045;-83
2022/01/31 09:17:18;;;;;;;18.88;2.75;;;5.70;99.90;;;;;;5036456;28;20528;-83
2022/01/31 09:19:44;;;;;;;16.08;2.33;;;5.80;99.90;;;;;;5040612;28;20120;-83
2022/01/31 09:22:10;;;;;;;15.32;2.30;;;5.70;99.90;;;;;;5039514;28;20091;-83
2022/01/31 09:24:38;;;;;;;15.45;2.55;;;5.50;99.90;;;;;;5038019;28;20096;-83
2022/01/31 09:27:08;;;;;;;11.32;2.13;;;5.40;99.90;;;;;;5038174;28;20034;-83
2022/01/31 09:29:34;;;;;;;23.13;3.40;;;5.20;99.90;;;;;;5035123;28;20089;-83
2022/01/31 09:32:02;;;;;;;9.75;2.05;;;5.30;99.90;;;;;;5036566;28;20041;-82
2022/01/31 09:34:46;;;;;;;14.05;2.78;;;5.40;99.90;;;;;;5767622;23;20081;-84
2022/01/31 09:40:08;;;;;;;13.82;1.88;;;5.80;99.90;;;;;;5004009;23;20823;-85
2022/01/31 09:42:41;;;;;;;15.35;2.53;;;5.70;99.90;;;;;;4966241;28;20073;-85
2022/01/31 09:45:16;;;;;;;15.45;2.05;;;6.40;99.90;;;;;;4968884;28;20050;-85
2022/01/31 09:50:26;;;;;;;17.88;2.05;;;5.60;99.90;;;;;;4966621;28;20398;-85
2022/01/31 09:52:52;;;;;;;14.00;1.95;;;6.50;99.90;;;;;;4981278;28;20078;-85
2022/01/31 09:55:17;;;;;;;25.52;3.58;;;5.60;99.90;;;;;;4976935;28;20101;-85
2022/01/31 09:57:43;;;;;;;10.55;1.90;;;6.20;99.90;;;;;;4971924;28;20061;-84
2022/01/31 10:00:10;;;;;;;12.15;1.55;;;6.20;99.90;;;;;;4961789;28;20056;-84
2022/01/31 10:02:35;;;;;;;13.73;2.30;;;5.60;99.90;;;;;;4979288;28;20042;-85
2022/01/31 10:05:01;;;;;;;9.13;1.52;;;5.20;99.90;;;;;;4981760;28;20050;-85
2022/01/31 10:07:44;;;;;;;15.85;2.25;;;5.60;99.90;;;;;;4981462;28;20046;-84
2022/01/31 10:10:25;;;;;;;8.90;1.70;;;5.60;99.90;;;;;;4981055;28;20523;-84
2022/01/31 10:18:08;;;;;;;15.90;1.73;;;5.60;99.90;;;;;;4961723;28;20054;-84
2022/01/31 10:20:35;;;;;;;11.40;1.50;;;5.60;99.90;;;;;;4963007;28;20375;-85
2022/01/31 10:23:12;;;;;;;13.68;1.70;;;5.80;99.90;;;;;;4980648;28;20085;-85
2022/01/31 10:25:39;;;;;;;15.48;2.00;;;5.80;99.90;;;;;;4980680;28;20560;-84
2022/01/31 10:28:19;;;;;;;7.43;1.40;;;6.00;99.90;;;;;;4980339;28;20129;-85
2022/01/31 10:30:47;;;;;;;18.60;2.55;;;6.10;99.90;;;;;;4980832;28;20038;-85
2022/01/31 10:33:13;;;;;;;12.98;1.85;;;6.10;99.90;;;;;;4979474;28;20044;-85
2022/01/31 10:35:40;;;;;;;17.13;3.25;;;6.30;99.90;;;;;;4980290;28;20053;-84
2022/01/31 10:38:15;;;;;;;10.48;2.67;;;7.40;99.90;;;;;;4980290;28;20496;-84
2022/01/31 10:50:38;;;;;;;21.58;2.65;;;6.60;99.90;;;;;;4980530;28;20050;-85
2022/01/31 10:52:06;;;;;;;16.65;2.92;;;6.90;99.90;;;;;;4984479;28;20096;-85
2022/01/31 10:57:04;;;;;;;19.98;2.58;;;6.90;99.90;;;;;;4984067;28;20058;-85
2022/01/31 10:59:36;;;;;;;16.40;2.53;;;6.90;99.90;;;;;;4966662;28;20573;-84
2022/01/31 11:02:07;;;;;;;10.45;2.28;;;7.10;99.90;;;;;;4950675;28;20050;-85
2022/01/31 11:04:36;;;;;;;21.08;2.13;;;7.00;99.90;;;;;;4949891;28;20046;-84
2022/01/31 11:07:08;;;;;;;11.13;1.95;;;6.90;99.90;;;;;;4950513;28;20533;-84
2022/01/31 11:09:35;;;;;;;21.40;2.33;;;6.80;99.90;;;;;;4949605;28;20360;-84
2022/01/31 11:12:01;;;;;;;20.15;2.33;;;6.80;99.90;;;;;;4965910;28;20116;-84
2022/01/31 11:14:28;;;;;;;12.45;2.60;;;7.00;99.90;;;;;;4950494;28;20331;-84
2022/01/31 11:16:57;;;;;;;13.95;2.92;;;6.90;99.90;;;;;;4954133;28;20104;-84
2022/01/31 11:19:32;;;;;;;20.52;3.05;;;6.80;99.90;;;;;;4990142;28;20496;-84
2022/01/31 11:22:02;;;;;;;14.27;2.33;;;6.70;99.90;;;;;;4973404;28;20142;-84
2022/01/31 11:24:35;;;;;;;13.70;3.00;;;6.80;99.90;;;;;;4969277;28;20047;-85
2022/01/31 11:27:08;;;;;;;13.02;2.17;;;6.80;99.90;;;;;;4967256;28;20050;-84
2022/01/31 11:29:37;;;;;;;12.52;2.45;;;7.20;99.90;;;;;;4967386;28;20132;-84
2022/01/31 11:32:04;;;;;;;10.48;1.75;;;6.80;99.90;;;;;;4984797;28;20054;-84
2022/01/31 11:34:31;;;;;;;9.57;2.28;;;7.10;99.90;;;;;;4950977;28;20054;-84
2022/01/31 11:36:57;;;;;;;21.92;2.45;;;7.20;99.90;;;;;;4967549;28;20054;-84
2022/01/31 11:39:23;;;;;;;12.68;2.58;;;7.30;99.90;;;;;;4950834;28;20147;-84
2022/01/31 11:41:56;;;;;;;16.23;3.15;;;7.40;99.90;;;;;;4967184;28;20094;-84
2022/01/31 11:44:34;;;;;;;21.33;3.63;;;7.50;99.90;;;;;;4964541;28;20515;-84
2022/01/31 11:47:06;;;;;;;11.48;2.85;;;7.60;99.90;;;;;;4965425;28;20046;-84
2022/01/31 11:49:58;;;;;;;21.58;3.05;;;7.70;99.90;;;;;;4965421;28;20121;-84
2022/01/31 11:52:25;;;;;;;19.60;2.67;;;7.90;99.90;;;;;;4966529;28;20050;-84
2022/01/31 11:54:58;;;;;;;16.52;3.70;;;8.20;99.90;;;;;;4984457;28;20508;-84
2022/01/31 11:57:28;;;;;;;19.70;3.78;;;8.40;99.90;;;;;;4983956;28;20065;-84
2022/01/31 11:59:57;;;;;;;24.10;3.70;;;8.60;99.90;;;;;;4982809;28;20104;-84
2022/01/31 12:02:24;;;;;;;14.95;3.05;;;8.50;99.90;;;;;;4983970;28;20517;-84
2022/01/31 12:04:51;;;;;;;14.85;3.08;;;8.40;99.90;;;;;;4984141;28;20575;-83
2022/01/31 12:07:31;;;;;;;18.95;3.00;;;8.30;99.90;;;;;;4984432;28;20059;-82
2022/01/31 12:09:59;;;;;;;17.75;3.45;;;8.30;99.90;;;;;;4983895;28;20050;-83
2022/01/31 12:12:51;;;;;;;16.48;4.22;;;8.20;99.90;;;;;;4966155;28;20053;-83
2022/01/31 12:15:50;;;;;;;17.05;2.88;;;8.30;99.90;;;;;;4984631;28;20058;-83
2022/01/31 12:18:39;;;;;;;14.98;2.83;;;8.30;99.90;;;;;;4966551;28;20093;-83
2022/01/31 12:24:27;;;;;;;20.73;2.95;;;8.30;99.90;;;;;;4966742;28;20436;-83
2022/01/31 12:26:56;;;;;;;26.20;3.50;;;8.20;99.90;;;;;;4966827;28;20142;-82
2022/01/31 12:29:25;;;;;;;22.85;3.83;;;8.10;99.90;;;;;;4948615;28;20136;-83
2022/01/31 12:31:52;;;;;;;21.50;3.67;;;8.10;99.90;;;;;;4965600;28;20050;-83
2022/01/31 12:34:20;;;;;;;18.17;2.50;;;8.10;99.90;;;;;;4965059;28;20038;-82
2022/01/31 12:37:17;;;;;;;16.75;3.08;;;8.20;99.90;;;;;;4949325;28;20153;-83
2022/01/31 12:39:55;;;;;;;17.95;2.80;;;8.20;99.90;;;;;;4942926;28;20145;-83
2022/01/31 12:45:26;;;;;;;25.20;3.38;;;8.00;99.90;;;;;;4965022;28;20063;-83
2022/01/31 12:48:11;;;;;;;17.90;3.22;;;7.80;99.90;;;;;;4948388;28;20082;-83
2022/01/31 12:50:52;;;;;;;23.63;3.78;;;7.90;99.90;;;;;;4947957;28;20050;-83
2022/01/31 12:53:28;;;;;;;21.88;3.17;;;7.90;99.90;;;;;;4982467;28;20129;-83
2022/01/31 12:56:10;;;;;;;;;;;7.90;99.90;;;;;;4965651;28;20058;-83
2022/01/31 12:58:41;;;;;;;16.35;4.05;;;8.00;99.90;;;;;;4949898;28;19948;-82
2022/01/31 13:01:19;;;;;;;14.00;3.17;;;8.10;99.90;;;;;;4948927;28;20065;-83
2022/01/31 13:03:56;;;;;;;18.42;3.47;;;8.00;99.90;;;;;;4949008;28;20092;-83
2022/01/31 13:06:24;;;;;;;17.30;3.10;;;8.10;99.90;;;;;;4949078;28;20144;-83
2022/01/31 13:08:50;;;;;;;29.65;4.20;;;8.10;99.90;;;;;;4947736;28;20165;-83
2022/01/31 13:11:17;;;;;;;18.50;2.95;;;8.20;99.90;;;;;;4963585;28;20050;-83
2022/01/31 13:13:43;;;;;;;14.95;3.35;;;8.20;99.90;;;;;;4965010;28;20050;-83
2022/01/31 13:16:11;;;;;;;22.67;3.55;;;8.20;99.90;;;;;;4948281;28;20054;-83
2022/01/31 13:18:37;;;;;;;15.80;2.72;;;8.50;99.90;;;;;;4948979;28;20552;-83
2022/01/31 13:21:06;;;;;;;19.08;3.25;;;8.20;99.90;;;;;;4953258;28;20433;-83